Dresden, Missouri
Current Conditions -  °F | °C
As of 6:53 AM on Thursday 27 Nov 2014 (Local Time) from KDMO Reporting Station
Overcast Overcast  
Wind Chill: 19°   Ceiling: 1100
Heat Index: 28°   Visibility: 9mi
Dew Point: 23°   Wind: 10mph
Humidity: 81%   Direction: 330°NNW
Pressure: 30.5"   Gusts: NA
Location:  38.6763°N, 93.2612°W
Report Text: KDMO 271253Z AUTO 33009KT 9SM OVC011 M02/M05 A3050 RMK AO2 SLP337 T10221050
Loading
Personal Weather Stations






























Interactive Weather Map New forecast layout! Learn more

10-Day Weather Forecast

Advertisements
Track Severe Weather on mobile